Time;durP1;ratioP1;P1;durP2;ratioP2;P2;SDS_P1;SDS_P2;PMS_P1;PMS_P2;Temp;Humidity;BMP_temperature;BMP_pressure;BME280_temperature;BME280_humidity;BME280_pressure;Samples;Min_cycle;Max_cycle;Signal;HPM_P1;HPM_P2
2022/12/26 00:00:14;;;;;;;;;;;6.60;99.90;;;;;;5029320;28;20559;-77
2022/12/26 00:02:40;;;;;;;43.30;22.83;;;6.60;99.90;;;;;;5029142;28;19994;-78
2022/12/26 00:05:06;;;;;;;;;;;6.60;99.90;;;;;;5029720;28;20815;-77
2022/12/26 00:07:32;;;;;;;47.72;22.63;;;6.60;99.90;;;;;;5030813;28;20374;-77
2022/12/26 00:09:57;;;;;;;;;;;6.50;99.90;;;;;;5030919;28;20040;-77
2022/12/26 00:12:23;;;;;;;43.95;23.60;;;6.50;99.90;;;;;;5029685;28;20405;-77
2022/12/26 00:14:49;;;;;;;;;;;6.50;99.90;;;;;;5030523;28;20053;-77
2022/12/26 00:17:14;;;;;;;42.60;22.17;;;6.50;99.90;;;;;;5029156;28;19917;-77
2022/12/26 00:19:40;;;;;;;;;;;6.50;99.90;;;;;;5045755;28;20025;-77
2022/12/26 00:22:06;;;;;;;53.92;27.60;;;6.50;99.90;;;;;;5029417;28;20366;-77
2022/12/26 00:24:31;;;;;;;;;;;6.40;99.90;;;;;;5046414;28;20087;-77
2022/12/26 00:26:57;;;;;;;51.28;27.42;;;6.40;99.90;;;;;;5029414;28;19909;-78
2022/12/26 00:29:22;;;;;;;;;;;6.40;99.90;;;;;;5046572;28;20029;-77
2022/12/26 00:31:48;;;;;;;51.03;28.02;;;6.40;99.90;;;;;;5029744;28;19909;-77
2022/12/26 00:34:14;;;;;;;;;;;6.40;99.90;;;;;;5030191;28;20029;-77
2022/12/26 00:36:40;;;;;;;57.53;32.75;;;6.40;99.90;;;;;;5029933;28;19949;-77
2022/12/26 00:39:06;;;;;;;;;;;6.30;99.90;;;;;;5031377;28;20136;-77
2022/12/26 00:41:32;;;;;;;58.42;29.13;;;6.30;99.90;;;;;;5030476;28;19924;-77
2022/12/26 00:43:58;;;;;;;57.15;31.48;;;6.50;99.90;;;;;;5046739;28;20029;-77
2022/12/26 00:46:24;;;;;;;;;;;6.40;99.90;;;;;;5031970;28;20083;-75
2022/12/26 00:48:50;;;;;;;52.63;30.70;;;6.40;99.90;;;;;;5032353;28;19970;-77
2022/12/26 00:51:16;;;;;;;53.08;30.38;;;6.50;99.90;;;;;;5031902;28;20080;-77
2022/12/26 00:53:41;;;;;;;;;;;6.50;99.90;;;;;;5031354;28;20778;-77
2022/12/26 00:56:07;;;;;;;52.72;26.85;;;6.50;99.90;;;;;;5032304;28;19905;-77
2022/12/26 00:58:33;;;;;;;;;;;6.50;99.90;;;;;;5032630;28;20032;-77
2022/12/26 01:01:16;;;;;;;45.88;26.08;;;6.50;99.90;;;;;;5031174;28;19909;-77
2022/12/26 01:03:43;;;;;;;44.85;27.27;;;6.60;99.90;;;;;;5032039;28;20037;-77
2022/12/26 01:06:09;;;;;;;41.03;24.33;;;6.50;99.90;;;;;;5033401;28;20029;-76
2022/12/26 01:08:34;;;;;;;;;;;6.50;99.90;;;;;;5048972;28;20061;-77
2022/12/26 01:11:06;;;;;;;51.60;26.58;;;6.60;99.90;;;;;;5028379;28;19944;-77
2022/12/26 01:13:32;;;;;;;49.05;27.48;;;6.50;99.90;;;;;;5044487;28;20060;-77
2022/12/26 01:15:58;;;;;;;39.40;21.63;;;6.40;99.90;;;;;;5032001;28;20045;-77
2022/12/26 01:18:23;;;;;;;;;;;6.60;99.90;;;;;;5032087;28;20392;-79
2022/12/26 01:20:49;;;;;;;50.25;28.67;;;6.60;99.90;;;;;;5032853;28;19905;-77
2022/12/26 01:23:15;;;;;;;;;;;6.60;99.90;;;;;;5031684;28;20032;-77
2022/12/26 01:25:41;;;;;;;44.35;26.15;;;6.50;99.90;;;;;;5031528;28;20389;-77
2022/12/26 01:28:07;;;;;;;;;;;6.50;99.90;;;;;;5032516;28;20064;-77
2022/12/26 01:30:33;;;;;;;49.88;27.85;;;6.50;99.90;;;;;;5031685;28;20007;-77
2022/12/26 01:32:58;;;;;;;;;;;6.60;99.90;;;;;;5032292;28;20069;-77
2022/12/26 01:35:24;;;;;;;49.90;28.13;;;6.50;99.90;;;;;;5032538;28;19912;-77
2022/12/26 01:37:49;;;;;;;;;;;6.50;99.90;;;;;;5032187;28;20030;-77
2022/12/26 01:40:15;;;;;;;53.50;31.35;;;6.60;99.90;;;;;;5031883;28;20286;-77
2022/12/26 01:42:41;;;;;;;;;;;6.60;99.90;;;;;;5049102;28;20021;-77
2022/12/26 01:45:20;;;;;;;46.63;26.00;;;6.50;99.90;;;;;;5032868;28;19909;-77
2022/12/26 01:48:02;;;;;;;48.25;27.73;;;6.50;99.90;;;;;;5031365;28;20034;-78
2022/12/26 01:50:31;;;;;;;47.33;27.58;;;6.40;99.90;;;;;;5047730;28;20033;-77
2022/12/26 01:53:01;;;;;;;47.67;28.02;;;6.40;99.90;;;;;;5033027;28;20059;-77
2022/12/26 01:55:29;;;;;;;48.45;27.88;;;6.30;99.90;;;;;;5032969;28;20022;-77
2022/12/26 01:58:01;;;;;;;45.30;27.27;;;6.40;99.90;;;;;;5031034;28;20042;-77
2022/12/26 02:00:27;;;;;;;44.50;27.77;;;6.40;99.90;;;;;;5032736;28;20140;-77
2022/12/26 02:05:38;;;;;;;44.88;26.45;;;6.40;99.90;;;;;;5033416;28;20040;-77
2022/12/26 02:08:24;;;;;;;44.45;27.20;;;6.40;99.90;;;;;;5032239;28;20486;-77
2022/12/26 02:11:12;;;;;;;44.17;25.65;;;6.40;99.90;;;;;;5031106;28;20064;-78
2022/12/26 02:13:38;;;;;;;43.97;25.92;;;6.40;99.90;;;;;;5032617;28;20030;-78
2022/12/26 02:16:07;;;;;;;40.40;24.95;;;6.40;99.90;;;;;;5032709;28;20061;-77
2022/12/26 02:18:32;;;;;;;43.15;26.77;;;6.50;99.90;;;;;;5048333;28;20528;-78
2022/12/26 02:20:58;;;;;;;;;;;6.40;99.90;;;;;;5032100;28;20030;-77
2022/12/26 02:23:55;;;;;;;40.15;23.75;;;6.40;99.90;;;;;;5032925;28;19909;-78
2022/12/26 02:26:36;;;;;;;39.83;24.55;;;6.50;99.90;;;;;;5030485;28;20030;-77
2022/12/26 02:29:13;;;;;;;41.65;25.50;;;6.50;99.90;;;;;;5032043;28;20033;-76
2022/12/26 02:31:48;;;;;;;44.13;26.25;;;6.50;99.90;;;;;;5032000;28;20083;-77
2022/12/26 02:34:18;;;;;;;45.40;25.45;;;6.60;99.90;;;;;;5031711;28;20034;-77
2022/12/26 02:36:56;;;;;;;44.08;23.92;;;6.60;99.90;;;;;;5048981;28;20033;-77
2022/12/26 02:39:34;;;;;;;42.40;25.20;;;6.70;99.90;;;;;;5033844;28;20386;-78
2022/12/26 02:42:05;;;;;;;46.95;26.40;;;6.60;99.90;;;;;;5030731;28;20030;-77
2022/12/26 02:48:00;;;;;;;43.88;26.50;;;6.50;99.90;;;;;;5031011;28;20114;-78
2022/12/26 03:14:51;;;;;;;46.53;26.63;;;6.60;99.90;;;;;;5030961;28;20111;-77
2022/12/26 03:17:31;;;;;;;44.15;26.33;;;6.60;99.90;;;;;;5045909;28;20138;-77
2022/12/26 03:20:17;;;;;;;46.95;27.45;;;6.70;99.90;;;;;;5030911;28;20030;-77
2022/12/26 03:22:51;;;;;;;54.97;29.33;;;6.60;99.90;;;;;;5030826;28;20029;-77
2022/12/26 03:28:13;;;;;;;52.60;28.20;;;6.60;99.90;;;;;;5030726;28;20040;-78
2022/12/26 03:30:48;;;;;;;;;;;6.60;99.90;;;;;;5030092;28;20054;-77
2022/12/26 03:36:34;;;;;;;46.95;27.20;;;6.60;99.90;;;;;;5031393;28;20087;-77
2022/12/26 04:20:37;;;;;;;53.08;29.85;;;5.90;99.90;;;;;;5029727;28;20524;-78
2022/12/26 04:46:21;;;;;;;68.97;33.67;;;5.20;99.90;;;;;;5030371;28;20098;-77
2022/12/26 04:51:34;;;;;;;77.47;36.65;;;5.20;99.90;;;;;;5034747;28;20517;-77
2022/12/26 04:54:00;;;;;;;73.10;35.38;;;5.10;99.90;;;;;;5049659;28;20037;-78
2022/12/26 04:56:25;;;;;;;;;;;5.10;99.90;;;;;;5033676;28;20040;-77
2022/12/26 04:58:51;;;;;;;71.03;35.33;;;5.10;99.90;;;;;;5031284;28;20361;-77
2022/12/26 05:09:35;;;;;;;77.60;36.88;;;5.10;99.90;;;;;;5031777;28;20379;-77
2022/12/26 05:12:06;;;;;;;86.55;40.28;;;5.00;99.90;;;;;;5047240;28;20100;-77
2022/12/26 05:14:34;;;;;;;84.03;37.78;;;5.00;99.90;;;;;;5029981;28;20136;-77
2022/12/26 05:31:00;;;;;;;93.93;37.80;;;5.00;99.90;;;;;;5031628;28;20040;-77
2022/12/26 05:36:12;;;;;;;81.35;36.65;;;5.00;99.90;;;;;;5031071;28;20044;-76
2022/12/26 05:38:38;;;;;;;82.05;35.65;;;5.00;99.90;;;;;;5031501;28;20036;-77
2022/12/26 05:41:03;;;;;;;;;;;4.90;99.90;;;;;;5047096;28;20764;-77
2022/12/26 05:43:29;;;;;;;79.22;35.15;;;5.00;99.90;;;;;;5030416;28;19968;-77
2022/12/26 05:45:54;;;;;;;;;;;4.90;99.90;;;;;;5031339;28;20025;-77
2022/12/26 05:48:20;;;;;;;84.43;37.00;;;5.00;99.90;;;;;;5030391;28;19913;-77
2022/12/26 05:50:46;;;;;;;;;;;5.00;99.90;;;;;;5031235;28;20116;-76
2022/12/26 05:53:12;;;;;;;73.53;33.15;;;5.00;99.90;;;;;;5032413;28;19931;-77
2022/12/26 05:55:38;;;;;;;;;;;4.90;99.90;;;;;;5032116;28;20026;-76
2022/12/26 05:58:03;;;;;;;69.53;33.53;;;5.00;99.90;;;;;;5030961;28;19917;-77
2022/12/26 06:00:29;;;;;;;;;;;4.90;99.90;;;;;;5031306;28;20504;-76
2022/12/26 06:02:55;;;;;;;67.82;31.40;;;5.00;99.90;;;;;;5030966;28;19908;-77
2022/12/26 06:05:20;;;;;;;;;;;5.00;99.90;;;;;;5031127;28;20810;-77
2022/12/26 06:07:46;;;;;;;77.25;31.67;;;5.00;99.90;;;;;;5030788;28;19912;-77
2022/12/26 06:10:12;;;;;;;;;;;5.00;99.90;;;;;;5033658;28;20024;-76
2022/12/26 06:12:38;;;;;;;70.15;33.33;;;5.10;99.90;;;;;;5033215;28;19955;-76
2022/12/26 06:15:03;;;;;;;;;;;5.20;99.90;;;;;;5031939;28;20103;-76
2022/12/26 06:17:29;;;;;;;70.68;34.35;;;5.10;99.90;;;;;;5031425;28;20381;-77
2022/12/26 06:19:55;;;;;;;;;;;5.20;99.90;;;;;;5033626;28;20045;-77
2022/12/26 06:22:20;;;;;;;84.35;35.47;;;5.20;99.90;;;;;;5032764;28;19909;-76
2022/12/26 06:24:46;;;;;;;;;;;5.20;99.90;;;;;;5033887;28;20827;-77
2022/12/26 06:27:12;;;;;;;72.43;32.90;;;5.30;99.90;;;;;;5032474;28;19909;-77
2022/12/26 06:29:37;;;;;;;;;;;5.30;99.90;;;;;;5031690;28;20490;-77
2022/12/26 06:32:03;;;;;;;81.93;35.85;;;5.30;99.90;;;;;;5033053;28;19909;-78
2022/12/26 06:34:29;;;;;;;;;;;5.30;99.90;;;;;;5049964;28;20040;-78
2022/12/26 06:36:55;;;;;;;74.97;33.85;;;5.30;99.90;;;;;;5033010;28;20310;-77
2022/12/26 06:39:21;;;;;;;;;;;5.40;99.90;;;;;;5048207;28;20033;-78
2022/12/26 06:41:47;;;;;;;81.05;35.08;;;5.50;99.90;;;;;;5030058;28;19909;-78
2022/12/26 06:44:12;;;;;;;;;;;5.50;99.90;;;;;;5046839;28;20845;-77
2022/12/26 06:46:38;;;;;;;75.47;34.70;;;5.50;99.90;;;;;;5029115;28;19970;-77
2022/12/26 06:49:07;;;;;;;;;;;5.50;99.90;;;;;;5029952;28;20517;-77
2022/12/26 06:51:34;;;;;;;77.95;33.90;;;5.50;99.90;;;;;;5030174;28;19909;-78
2022/12/26 06:54:03;;;;;;;84.72;36.92;;;5.50;99.90;;;;;;5030930;28;20486;-77
2022/12/26 06:56:30;;;;;;;86.22;39.00;;;5.60;99.90;;;;;;5030468;28;20034;-77
2022/12/26 06:59:01;;;;;;;82.38;36.88;;;5.70;99.90;;;;;;5030629;28;20065;-78
2022/12/26 07:01:29;;;;;;;85.63;36.92;;;5.70;99.90;;;;;;5029530;28;20029;-77
2022/12/26 07:03:58;;;;;;;85.70;37.33;;;5.70;99.90;;;;;;5030644;28;20032;-77
2022/12/26 07:06:30;;;;;;;89.15;40.55;;;5.70;99.90;;;;;;5030830;28;20045;-78
2022/12/26 07:09:03;;;;;;;80.90;39.38;;;5.70;99.90;;;;;;5029215;28;20034;-77
2022/12/26 07:11:31;;;;;;;73.63;33.22;;;5.70;99.90;;;;;;5028757;28;20029;-77
2022/12/26 07:13:57;;;;;;;70.57;35.00;;;5.70;99.90;;;;;;5028994;28;20028;-78
2022/12/26 07:16:23;;;;;;;;;;;5.80;99.90;;;;;;5029411;28;20053;-77
2022/12/26 07:18:52;;;;;;;106.97;51.55;;;5.80;99.90;;;;;;5030137;28;19995;-77
2022/12/26 07:21:18;;;;;;;77.85;40.65;;;5.80;99.90;;;;;;5028441;28;20521;-78
2022/12/26 07:23:44;;;;;;;;;;;5.80;99.90;;;;;;5028861;28;20025;-78
2022/12/26 07:26:09;;;;;;;98.00;54.35;;;5.80;99.90;;;;;;5028698;28;19928;-78
2022/12/26 07:28:35;;;;;;;;;;;5.90;99.90;;;;;;5030475;28;20065;-77
2022/12/26 07:31:01;;;;;;;64.38;35.00;;;5.90;99.90;;;;;;5028546;28;19909;-77
2022/12/26 07:33:27;;;;;;;;;;;5.90;99.90;;;;;;5046198;28;20064;-78
2022/12/26 07:35:53;;;;;;;64.27;37.07;;;6.00;99.90;;;;;;5029426;28;19913;-78
2022/12/26 07:38:19;;;;;;;65.88;40.63;;;6.10;99.90;;;;;;5029857;28;20040;-77
2022/12/26 07:40:45;;;;;;;;;;;6.20;99.90;;;;;;5045855;28;20021;-77
2022/12/26 07:43:10;;;;;;;50.20;30.25;;;6.20;99.90;;;;;;5030206;28;19905;-78
2022/12/26 07:45:36;;;;;;;;;;;6.20;99.90;;;;;;5031203;28;20123;-77
2022/12/26 07:48:02;;;;;;;48.28;29.90;;;6.20;99.90;;;;;;5029390;28;19905;-78
2022/12/26 07:50:27;;;;;;;;;;;6.30;99.90;;;;;;5028809;28;20040;-78
2022/12/26 07:52:54;;;;;;;63.78;38.90;;;6.30;99.90;;;;;;5030067;28;19912;-78
2022/12/26 07:55:20;;;;;;;119.07;69.07;;;6.40;99.90;;;;;;5029325;28;20025;-77
2022/12/26 07:57:51;;;;;;;78.03;43.53;;;6.40;99.90;;;;;;5029218;28;20045;-77
2022/12/26 08:00:20;;;;;;;48.13;28.13;;;6.50;99.90;;;;;;5030484;28;20072;-77
2022/12/26 08:02:48;;;;;;;47.17;26.98;;;6.50;99.90;;;;;;5030263;28;20033;-78
2022/12/26 08:05:15;;;;;;;48.45;28.85;;;6.60;99.90;;;;;;5029161;28;20029;-78
2022/12/26 08:07:40;;;;;;;44.78;27.98;;;6.60;99.90;;;;;;5028807;28;20063;-77
2022/12/26 08:10:06;;;;;;;;;;;6.70;99.90;;;;;;5031430;28;20025;-78
2022/12/26 08:12:33;;;;;;;45.00;26.02;;;6.70;99.90;;;;;;5029800;28;20293;-77
2022/12/26 08:14:58;;;;;;;46.97;29.42;;;6.80;99.90;;;;;;5030450;28;20147;-78
2022/12/26 08:17:24;;;;;;;;;;;6.90;99.90;;;;;;5031689;28;20091;-77
2022/12/26 08:19:50;;;;;;;46.50;28.77;;;6.90;99.90;;;;;;5030305;28;19913;-78
2022/12/26 08:22:16;;;;;;;;;;;7.00;99.90;;;;;;5030758;28;20056;-77
2022/12/26 08:24:41;;;;;;;55.00;34.15;;;7.00;99.90;;;;;;5031675;28;19924;-77
2022/12/26 08:27:07;;;;;;;;;;;7.10;99.90;;;;;;5035203;28;20037;-77
2022/12/26 08:29:33;;;;;;;44.63;28.15;;;7.20;99.90;;;;;;5049995;28;19909;-77
2022/12/26 08:31:58;;;;;;;;;;;7.30;99.90;;;;;;5033302;28;20083;-77
2022/12/26 08:34:24;;;;;;;50.35;29.88;;;7.30;99.90;;;;;;5033370;28;19909;-77
2022/12/26 08:36:50;;;;;;;;;;;7.40;99.90;;;;;;5050263;28;20029;-77
2022/12/26 08:39:16;;;;;;;51.40;29.75;;;7.40;99.90;;;;;;5032984;28;20294;-77
2022/12/26 08:41:42;;;;;;;;;;;7.50;99.90;;;;;;5033513;28;20029;-75
2022/12/26 08:44:09;;;;;;;70.13;41.60;;;7.60;99.90;;;;;;5033844;28;19996;-77
2022/12/26 08:46:35;;;;;;;95.18;54.63;;;7.60;99.90;;;;;;5033310;28;20494;-77
2022/12/26 08:49:00;;;;;;;;;;;7.80;99.90;;;;;;5033537;28;20083;-77
2022/12/26 08:51:26;;;;;;;88.25;53.00;;;7.80;99.90;;;;;;5032465;28;20448;-77
2022/12/26 08:53:53;;;;;;;;;;;7.90;99.90;;;;;;5033107;28;20022;-77
2022/12/26 08:56:22;;;;;;;76.75;46.33;;;8.00;99.90;;;;;;5033117;28;19909;-77
2022/12/26 08:58:48;;;;;;;68.10;43.40;;;8.10;99.90;;;;;;5031250;28;20037;-77
2022/12/26 09:01:15;;;;;;;;;;;8.20;99.90;;;;;;5031353;28;20044;-78
2022/12/26 09:03:41;;;;;;;87.10;52.53;;;8.20;99.90;;;;;;5047172;28;19913;-76
2022/12/26 09:06:07;;;;;;;90.70;52.20;;;8.30;99.90;;;;;;5032078;28;20034;-78
2022/12/26 09:08:34;;;;;;;69.53;43.35;;;8.40;99.90;;;;;;5030661;28;20460;-77
2022/12/26 09:11:05;;;;;;;67.82;39.72;;;8.40;99.90;;;;;;5032151;28;20534;-77
2022/12/26 09:13:32;;;;;;;74.70;42.85;;;8.40;99.90;;;;;;5032053;28;20025;-77
2022/12/26 09:16:17;;;;;;;70.82;43.13;;;8.50;99.90;;;;;;5030198;28;20054;-76
2022/12/26 09:18:44;;;;;;;68.78;40.58;;;8.50;99.90;;;;;;5031617;28;20482;-77
2022/12/26 09:21:12;;;;;;;65.95;38.30;;;8.40;99.90;;;;;;5030191;28;20028;-78
2022/12/26 09:23:39;;;;;;;64.55;39.65;;;8.50;99.90;;;;;;5047019;28;20037;-77
2022/12/26 09:26:06;;;;;;;66.22;36.33;;;8.50;99.90;;;;;;5032000;28;20569;-77
2022/12/26 09:28:32;;;;;;;60.75;34.83;;;8.60;99.90;;;;;;5030521;28;20025;-77
2022/12/26 09:31:02;;;;;;;49.55;30.58;;;8.60;99.90;;;;;;5031772;28;20425;-77
2022/12/26 09:33:29;;;;;;;55.88;33.08;;;8.70;99.90;;;;;;5047228;28;20564;-77
2022/12/26 09:35:55;;;;;;;58.58;32.35;;;8.70;99.90;;;;;;5031311;28;20548;-78
2022/12/26 09:38:21;;;;;;;;;;;8.80;99.90;;;;;;5030579;28;20045;-77
2022/12/26 09:41:04;;;;;;;60.90;39.25;;;8.80;99.90;;;;;;5029953;28;19936;-77
2022/12/26 09:44:06;;;;;;;49.60;31.55;;;8.70;99.90;;;;;;5031407;28;20030;-78
2022/12/26 09:46:43;;;;;;;50.50;31.20;;;8.70;99.90;;;;;;5030373;28;20036;-77
2022/12/26 09:49:23;;;;;;;56.00;34.30;;;8.70;99.90;;;;;;5031884;28;20053;-77
2022/12/26 09:51:54;;;;;;;54.58;31.35;;;8.60;99.90;;;;;;5031349;28;20026;-77
2022/12/26 09:54:46;;;;;;;48.90;29.08;;;8.60;99.90;;;;;;5031492;28;20026;-77
2022/12/26 09:57:29;;;;;;;43.97;27.52;;;8.50;99.90;;;;;;5046901;28;20136;-78
2022/12/26 10:00:03;;;;;;;46.45;28.50;;;8.60;99.90;;;;;;5031387;28;20037;-77
2022/12/26 10:02:28;;;;;;;43.65;27.27;;;8.60;99.90;;;;;;5046093;28;20158;-77
2022/12/26 10:04:54;;;;;;;;;;;8.70;99.90;;;;;;5047253;28;20541;-78
2022/12/26 10:07:45;;;;;;;43.80;25.98;;;8.80;99.90;;;;;;5032089;28;20441;-77
2022/12/26 10:10:36;;;;;;;43.97;27.00;;;8.90;99.90;;;;;;5031396;28;20379;-78
2022/12/26 10:13:22;;;;;;;41.40;25.55;;;8.90;99.90;;;;;;5030847;28;20026;-76
2022/12/26 10:15:50;;;;;;;41.83;26.45;;;9.00;99.90;;;;;;5028933;28;20624;-76
2022/12/26 10:18:54;;;;;;;43.15;28.00;;;9.00;99.90;;;;;;5031296;28;20044;-77
2022/12/26 10:21:57;;;;;;;52.13;29.77;;;9.00;99.90;;;;;;5030505;28;20029;-77
2022/12/26 10:24:26;;;;;;;45.65;26.83;;;9.00;99.90;;;;;;5030764;28;20108;-77
2022/12/26 10:26:58;;;;;;;54.33;31.40;;;9.10;99.90;;;;;;5029421;28;20029;-77
2022/12/26 10:29:34;;;;;;;56.75;30.90;;;9.10;99.90;;;;;;5029304;28;20087;-78
2022/12/26 10:32:04;;;;;;;54.95;32.22;;;9.10;99.90;;;;;;5029600;28;20067;-78
2022/12/26 10:34:36;;;;;;;58.65;32.85;;;9.10;99.90;;;;;;5029372;28;20030;-77
2022/12/26 10:37:18;;;;;;;57.72;32.25;;;9.10;99.90;;;;;;5029479;28;20080;-76
2022/12/26 10:40:11;;;;;;;53.42;31.38;;;9.00;99.90;;;;;;5030651;28;20022;-77
2022/12/26 10:42:40;;;;;;;59.35;36.72;;;8.90;99.90;;;;;;5021687;28;20134;-78
2022/12/26 10:45:44;;;;;;;62.92;35.42;;;8.80;99.90;;;;;;5030539;28;20106;-77
2022/12/26 10:48:13;;;;;;;59.40;33.38;;;8.90;99.90;;;;;;5028866;28;20029;-77
2022/12/26 10:50:44;;;;;;;57.70;32.25;;;8.90;99.90;;;;;;5046524;28;20029;-77
2022/12/26 10:53:13;;;;;;;54.53;29.77;;;8.80;99.90;;;;;;5030908;28;20512;-78
2022/12/26 10:55:39;;;;;;;56.38;29.77;;;8.80;99.90;;;;;;5030810;28;20034;-77
2022/12/26 10:58:10;;;;;;;;;;;8.70;99.90;;;;;;5029777;28;20044;-77
2022/12/26 11:00:36;;;;;;;57.47;28.55;;;8.70;99.90;;;;;;5029442;28;20298;-76
2022/12/26 11:03:01;;;;;;;;;;;8.70;99.90;;;;;;5031160;28;20024;-77
2022/12/26 11:05:27;;;;;;;59.42;29.77;;;8.70;99.90;;;;;;5030578;28;19908;-76
2022/12/26 11:08:04;;;;;;;;;;;8.70;99.90;;;;;;5029635;28;20536;-76
2022/12/26 11:10:30;;;;;;;57.33;28.73;;;8.70;99.90;;;;;;5029604;28;19909;-77
2022/12/26 11:12:59;;;;;;;;;;;8.70;99.90;;;;;;5046235;28;20039;-78
2022/12/26 11:15:36;;;;;;;55.05;30.40;;;8.70;99.90;;;;;;5029019;28;19921;-76
2022/12/26 11:18:14;;;;;;;62.80;33.92;;;8.70;99.90;;;;;;5029295;28;20437;-77
2022/12/26 11:20:41;;;;;;;58.65;30.63;;;8.80;99.90;;;;;;5030908;28;20024;-77
2022/12/26 11:23:31;;;;;;;55.22;31.58;;;8.80;99.90;;;;;;5030208;28;20065;-77
2022/12/26 11:25:59;;;;;;;60.53;31.85;;;8.90;99.90;;;;;;5027753;28;20033;-77
2022/12/26 11:28:27;;;;;;;62.88;37.28;;;8.80;99.90;;;;;;5029566;28;20109;-76
2022/12/26 11:30:54;;;;;;;59.80;35.15;;;8.80;99.90;;;;;;5028106;28;20040;-77
2022/12/26 11:33:40;;;;;;;54.00;31.20;;;8.80;99.90;;;;;;5027972;28;20036;-77
2022/12/26 11:36:26;;;;;;;53.83;30.13;;;8.80;99.90;;;;;;5029506;28;20159;-77
2022/12/26 11:39:06;;;;;;;66.03;34.90;;;8.80;99.90;;;;;;5029436;28;20069;-77
2022/12/26 11:41:42;;;;;;;65.35;34.65;;;8.80;99.90;;;;;;5044510;28;20064;-77
2022/12/26 11:44:08;;;;;;;73.55;35.35;;;8.70;99.90;;;;;;5029144;28;20049;-77
2022/12/26 11:46:37;;;;;;;;;;;8.70;99.90;;;;;;5028436;28;20072;-76
2022/12/26 11:49:03;;;;;;;69.78;33.53;;;8.70;99.90;;;;;;5027756;28;20404;-77
2022/12/26 11:51:41;;;;;;;62.72;30.90;;;8.70;99.90;;;;;;5044297;28;20124;-77
2022/12/26 11:54:22;;;;;;;61.00;28.92;;;8.80;99.90;;;;;;5027854;28;20045;-77
2022/12/26 11:56:48;;;;;;;58.38;29.05;;;8.90;99.90;;;;;;5027648;28;20103;-76
2022/12/26 11:59:21;;;;;;;53.75;26.55;;;8.90;99.90;;;;;;5028724;28;20568;-77
2022/12/26 12:02:09;;;;;;;55.65;27.30;;;9.00;99.90;;;;;;5043622;28;20084;-76
2022/12/26 12:04:34;;;;;;;56.95;27.98;;;9.00;99.90;;;;;;5028638;28;20076;-77
2022/12/26 12:07:04;;;;;;;;;;;9.10;99.90;;;;;;5029053;28;20045;-76
2022/12/26 12:09:43;;;;;;;63.47;30.02;;;9.10;99.90;;;;;;5028581;28;19931;-77
2022/12/26 12:12:24;;;;;;;57.63;27.30;;;9.20;99.90;;;;;;5028747;28;20026;-77
2022/12/26 12:15:27;;;;;;;47.63;23.15;;;9.20;99.90;;;;;;5028613;28;20176;-77
2022/12/26 12:18:09;;;;;;;50.47;24.00;;;9.20;99.90;;;;;;5028547;28;20048;-77
2022/12/26 12:20:56;;;;;;;53.08;24.58;;;9.10;99.90;;;;;;5029238;28;20635;-77
2022/12/26 12:23:40;;;;;;;;;;;9.10;99.90;;;;;;5044808;28;20033;-77
2022/12/26 12:26:25;;;;;;;43.45;23.02;;;9.10;99.90;;;;;;5027263;28;20397;-78
2022/12/26 12:29:09;;;;;;;54.75;28.77;;;9.10;99.90;;;;;;5027637;28;20076;-77
2022/12/26 12:31:53;;;;;;;59.38;24.55;;;9.10;99.90;;;;;;5028724;28;20025;-77
2022/12/26 12:34:18;;;;;;;53.80;26.67;;;9.10;99.90;;;;;;5027486;28;20033;-77
2022/12/26 12:36:50;;;;;;;;;;;9.00;99.90;;;;;;5029552;28;20371;-77
2022/12/26 12:39:34;;;;;;;48.17;25.05;;;9.00;99.90;;;;;;5027727;28;20385;-76
2022/12/26 12:42:32;;;;;;;45.05;23.73;;;9.00;99.90;;;;;;5029085;28;20025;-77
2022/12/26 12:45:41;;;;;;;46.08;23.73;;;9.00;99.90;;;;;;5027417;28;20056;-76
2022/12/26 12:48:21;;;;;;;66.47;36.50;;;9.00;99.90;;;;;;5043910;28;20028;-77
2022/12/26 12:51:01;;;;;;;48.00;25.67;;;8.90;99.90;;;;;;5028421;28;20506;-76
2022/12/26 12:53:48;;;;;;;47.50;23.48;;;8.90;99.90;;;;;;5027418;28;20026;-76
2022/12/26 12:56:26;;;;;;;38.10;22.95;;;8.80;99.90;;;;;;5027745;28;20053;-77
2022/12/26 12:59:28;;;;;;;45.10;24.42;;;8.90;99.90;;;;;;5028953;28;20076;-77
2022/12/26 13:01:59;;;;;;;46.28;24.02;;;8.80;99.90;;;;;;5027419;28;20124;-77
2022/12/26 13:04:33;;;;;;;47.85;25.13;;;8.80;99.90;;;;;;5043450;28;20060;-77
2022/12/26 13:07:08;;;;;;;47.28;25.83;;;8.90;99.90;;;;;;5043782;28;20033;-77
2022/12/26 13:09:44;;;;;;;48.78;25.58;;;8.90;99.90;;;;;;5044290;28;20033;-78
2022/12/26 13:12:34;;;;;;;55.85;31.80;;;8.80;99.90;;;;;;5032712;28;20021;-77
2022/12/26 13:15:07;;;;;;;44.22;24.90;;;8.80;99.90;;;;;;5033925;28;20051;-77
2022/12/26 13:17:48;;;;;;;51.08;26.17;;;8.70;99.90;;;;;;5034313;28;20087;-77
2022/12/26 13:20:39;;;;;;;47.72;26.33;;;8.70;99.90;;;;;;5031698;28;20509;-77
2022/12/26 13:26:31;;;;;;;39.30;23.20;;;8.80;99.90;;;;;;5022305;28;20505;-76
2022/12/26 13:29:16;;;;;;;44.85;24.42;;;8.80;99.90;;;;;;5047741;28;20045;-77
2022/12/26 13:31:44;;;;;;;48.30;24.98;;;8.80;99.90;;;;;;5030205;28;20078;-76
2022/12/26 13:34:15;;;;;;;45.33;23.58;;;8.80;99.90;;;;;;5030520;28;20030;-77
2022/12/26 13:36:43;;;;;;;43.30;23.65;;;8.80;99.90;;;;;;5030638;28;20064;-77
2022/12/26 13:39:11;;;;;;;43.13;27.92;;;8.90;99.90;;;;;;5031977;28;20037;-77
2022/12/26 13:44:35;;;;;;;37.85;21.85;;;8.80;99.90;;;;;;5033500;28;20091;-76
2022/12/26 13:47:01;;;;;;;;;;;8.80;99.90;;;;;;5032519;28;20034;-77
2022/12/26 13:49:38;;;;;;;40.72;23.02;;;8.80;99.90;;;;;;5029804;28;19920;-78
2022/12/26 13:52:10;;;;;;;43.15;26.58;;;8.70;99.90;;;;;;5046842;28;20031;-77
2022/12/26 13:54:51;;;;;;;43.88;25.38;;;8.70;99.90;;;;;;5029783;28;20037;-77
2022/12/26 13:57:39;;;;;;;46.25;26.10;;;8.70;99.90;;;;;;5029591;28;20514;-77
2022/12/26 14:00:04;;;;;;;52.88;31.52;;;8.70;99.90;;;;;;5031550;28;20024;-76
2022/12/26 14:02:49;;;;;;;;;;;8.60;99.90;;;;;;5030076;28;20034;-77
2022/12/26 14:05:30;;;;;;;50.35;26.77;;;8.60;99.90;;;;;;5029846;28;20353;-77
2022/12/26 14:08:19;;;;;;;60.17;34.55;;;8.50;99.90;;;;;;5029759;28;20037;-77
2022/12/26 14:11:08;;;;;;;43.78;23.42;;;8.50;99.90;;;;;;5023823;28;20061;-77
2022/12/26 14:13:39;;;;;;;39.47;23.23;;;8.50;99.90;;;;;;5029381;28;20116;-78
2022/12/26 14:16:51;;;;;;;41.63;23.90;;;8.40;99.90;;;;;;5031404;28;20529;-77
2022/12/26 14:19:28;;;;;;;40.80;22.77;;;8.40;99.90;;;;;;4972919;28;20093;-77
2022/12/26 14:21:59;;;;;;;40.85;22.23;;;8.40;99.90;;;;;;5025929;28;20131;-77
2022/12/26 14:24:36;;;;;;;41.28;22.23;;;8.30;99.90;;;;;;5029647;28;20026;-77
2022/12/26 14:27:22;;;;;;;43.20;25.92;;;8.30;99.90;;;;;;5030587;28;20029;-77
2022/12/26 14:30:03;;;;;;;47.25;25.85;;;8.30;99.90;;;;;;5029399;28;20029;-77
2022/12/26 14:32:49;;;;;;;53.28;25.50;;;8.20;99.90;;;;;;5029188;28;20033;-77
2022/12/26 14:35:26;;;;;;;44.72;24.85;;;8.20;99.90;;;;;;5029831;28;20506;-77
2022/12/26 14:37:59;;;;;;;47.92;26.55;;;8.10;99.90;;;;;;5030292;28;20115;-77
2022/12/26 14:40:33;;;;;;;58.25;30.20;;;8.00;99.90;;;;;;5031280;28;20017;-77
2022/12/26 14:43:11;;;;;;;64.85;35.85;;;8.10;99.90;;;;;;5029711;28;20030;-76
2022/12/26 14:45:37;;;;;;;65.47;35.92;;;8.00;99.90;;;;;;5029381;28;20506;-77
2022/12/26 14:48:22;;;;;;;;;;;8.00;99.90;;;;;;5031890;28;20104;-77
2022/12/26 14:50:51;;;;;;;70.40;36.40;;;8.00;99.90;;;;;;5029425;28;19962;-77
2022/12/26 14:53:26;;;;;;;71.28;35.85;;;7.90;99.90;;;;;;5029838;28;20037;-77
2022/12/26 14:56:00;;;;;;;97.15;45.13;;;7.80;99.90;;;;;;5029348;28;20112;-77
2022/12/26 14:58:43;;;;;;;82.78;45.50;;;7.70;99.90;;;;;;5028599;28;20037;-77
2022/12/26 15:01:12;;;;;;;99.10;52.83;;;7.60;99.90;;;;;;5028752;28;20563;-77
2022/12/26 15:04:02;;;;;;;138.60;76.50;;;7.50;99.90;;;;;;5029338;28;20033;-76
2022/12/26 15:06:56;;;;;;;100.55;49.58;;;7.40;99.90;;;;;;5028754;28;20071;-77
2022/12/26 15:10:03;;;;;;;90.45;44.80;;;7.30;99.90;;;;;;5029333;28;20425;-77
2022/12/26 15:12:41;;;;;;;80.78;41.35;;;7.20;99.90;;;;;;5029915;28;20527;-76
2022/12/26 15:15:33;;;;;;;146.07;72.00;;;7.10;99.90;;;;;;5030624;28;20069;-77
2022/12/26 15:17:58;;;;;;;96.55;50.45;;;7.10;99.90;;;;;;5027531;28;20064;-77
2022/12/26 15:20:43;;;;;;;;;;;7.00;99.90;;;;;;5029841;28;20517;-77
2022/12/26 15:23:31;;;;;;;124.75;64.47;;;6.90;99.90;;;;;;5030690;28;20424;-77
2022/12/26 15:26:08;;;;;;;147.93;77.50;;;6.80;99.90;;;;;;5029015;28;20418;-76
2022/12/26 15:29:05;;;;;;;137.18;72.70;;;6.70;99.90;;;;;;5029013;28;20560;-77
2022/12/26 15:31:46;;;;;;;157.23;81.40;;;6.60;99.90;;;;;;5030451;28;20029;-77
2022/12/26 15:34:42;;;;;;;142.65;73.68;;;6.60;99.90;;;;;;5030294;28;20032;-76
2022/12/26 15:37:29;;;;;;;104.85;53.65;;;6.50;99.90;;;;;;5030689;28;20033;-76
2022/12/26 15:40:22;;;;;;;105.15;54.22;;;6.60;99.90;;;;;;4998739;28;20493;-76